Time;durP1;ratioP1;P1;durP2;ratioP2;P2;SDS_P1;SDS_P2;PMS_P1;PMS_P2;Temp;Humidity;BMP_temperature;BMP_pressure;BME280_temperature;BME280_humidity;BME280_pressure;Samples;Min_cycle;Max_cycle;Signal;HPM_P1;HPM_P2
2022/07/26 00:01:57;;;;;;;4.05;1.30;;;24.20;55.30;;;;;;5026254;28;20025;-56
2022/07/26 00:04:23;;;;;;;4.00;1.15;;;24.20;55.30;;;;;;5026820;28;20041;-56
2022/07/26 00:06:48;;;;;;;3.92;1.40;;;24.20;55.30;;;;;;5026496;28;20119;-56
2022/07/26 00:09:14;;;;;;;2.88;1.10;;;24.20;55.30;;;;;;5027590;28;20079;-56
2022/07/26 00:11:40;;;;;;;3.88;1.25;;;24.20;55.30;;;;;;5027755;28;20030;-56
2022/07/26 00:14:06;;;;;;;2.95;1.20;;;24.20;55.30;;;;;;5021784;28;20257;-57
2022/07/26 00:16:32;;;;;;;3.42;1.02;;;24.20;55.30;;;;;;5026637;28;20033;-55
2022/07/26 00:18:57;;;;;;;2.33;0.95;;;24.20;55.30;;;;;;5026589;28;20486;-56
2022/07/26 00:21:23;;;;;;;3.58;1.25;;;24.20;55.30;;;;;;5026598;28;20025;-56
2022/07/26 00:23:49;;;;;;;3.42;1.10;;;24.20;55.30;;;;;;5026697;28;20025;-56
2022/07/26 00:26:15;;;;;;;3.97;1.38;;;24.20;55.30;;;;;;5027369;28;20083;-69
2022/07/26 00:28:40;;;;;;;4.68;1.30;;;24.20;55.30;;;;;;5022868;28;20091;-68
2022/07/26 00:31:06;;;;;;;4.28;1.05;;;24.20;55.30;;;;;;5028325;28;20029;-68
2022/07/26 00:33:32;;;;;;;4.60;1.25;;;24.20;55.30;;;;;;5027156;28;20394;-68
2022/07/26 00:35:58;;;;;;;2.17;1.02;;;24.10;55.30;;;;;;5026878;28;20064;-68
2022/07/26 00:38:23;;;;;;;4.60;1.30;;;24.10;55.30;;;;;;5026305;28;20025;-69
2022/07/26 00:40:49;;;;;;;5.25;1.20;;;24.10;55.30;;;;;;5025487;28;20061;-68
2022/07/26 00:43:15;;;;;;;4.05;1.13;;;24.20;55.30;;;;;;5025848;28;20025;-68
2022/07/26 00:45:40;;;;;;;4.10;1.30;;;24.10;55.30;;;;;;5025846;28;20031;-68
2022/07/26 00:48:06;;;;;;;3.22;1.13;;;24.20;55.40;;;;;;5027549;28;20490;-68
2022/07/26 00:50:32;;;;;;;2.47;0.90;;;24.10;55.30;;;;;;5025167;28;20483;-68
2022/07/26 00:52:57;;;;;;;3.83;1.25;;;24.10;55.30;;;;;;5028358;28;20056;-68
2022/07/26 00:55:23;;;;;;;4.90;1.00;;;24.10;55.30;;;;;;5027568;28;20032;-68
2022/07/26 00:57:49;;;;;;;2.80;0.82;;;24.10;55.30;;;;;;5027100;28;20043;-68
2022/07/26 01:00:20;;;;;;;3.28;1.13;;;24.10;55.30;;;;;;5024766;28;20691;-68
2022/07/26 01:02:46;;;;;;;2.67;0.90;;;24.10;55.30;;;;;;5026645;28;20041;-68
2022/07/26 01:05:12;;;;;;;2.70;1.02;;;24.10;55.40;;;;;;5026332;28;20072;-69
2022/07/26 01:07:37;;;;;;;3.55;1.10;;;24.10;55.30;;;;;;5026083;28;20065;-68
2022/07/26 01:10:04;;;;;;;3.03;1.00;;;24.10;55.30;;;;;;5026596;28;20029;-68
2022/07/26 01:12:30;;;;;;;4.40;1.20;;;24.10;55.40;;;;;;5026087;28;20103;-68
2022/07/26 01:14:56;;;;;;;3.42;1.42;;;24.00;55.30;;;;;;5027222;28;20037;-68
2022/07/26 01:17:21;;;;;;;2.72;1.13;;;24.10;55.40;;;;;;5025636;28;20398;-68
2022/07/26 01:19:47;;;;;;;3.15;1.13;;;24.10;55.40;;;;;;5025937;28;20031;-68
2022/07/26 01:22:13;;;;;;;3.95;1.20;;;24.00;55.30;;;;;;5026540;28;20049;-68
2022/07/26 01:24:38;;;;;;;2.92;0.88;;;24.10;55.40;;;;;;5027005;28;20025;-68
2022/07/26 01:27:04;;;;;;;2.80;1.00;;;24.10;55.40;;;;;;5026960;28;20048;-68
2022/07/26 01:29:30;;;;;;;2.25;1.10;;;24.00;55.40;;;;;;5023846;28;20030;-68
2022/07/26 01:31:55;;;;;;;3.25;1.08;;;24.00;55.40;;;;;;5025978;28;20037;-68
2022/07/26 01:34:21;;;;;;;2.25;0.80;;;24.10;55.40;;;;;;5025424;28;20057;-68
2022/07/26 01:36:47;;;;;;;3.08;1.10;;;24.00;55.40;;;;;;5025567;28;20502;-68
2022/07/26 01:39:13;;;;;;;2.35;0.95;;;24.00;55.40;;;;;;5025979;28;20039;-68
2022/07/26 01:41:38;;;;;;;2.58;0.93;;;24.00;55.40;;;;;;5022574;28;20021;-68
2022/07/26 01:44:05;;;;;;;3.67;1.10;;;24.00;55.40;;;;;;5026093;28;20025;-69
2022/07/26 01:46:31;;;;;;;2.95;0.93;;;24.00;55.50;;;;;;5026849;28;20430;-68
2022/07/26 01:48:57;;;;;;;3.30;0.98;;;24.00;55.40;;;;;;5025227;28;20018;-68
2022/07/26 01:51:22;;;;;;;5.00;1.10;;;24.00;55.40;;;;;;5055027;28;20037;-68
2022/07/26 01:53:48;;;;;;;2.40;1.17;;;24.00;55.40;;;;;;5025568;28;20072;-68
2022/07/26 01:56:14;;;;;;;2.85;1.02;;;24.00;55.40;;;;;;5026583;28;20021;-68
2022/07/26 01:58:40;;;;;;;4.20;1.38;;;24.00;55.40;;;;;;5024867;28;20029;-68
2022/07/26 02:01:07;;;;;;;1.95;0.90;;;24.00;55.40;;;;;;5024620;28;20521;-68
2022/07/26 02:03:32;;;;;;;2.55;1.02;;;24.00;55.40;;;;;;5023114;28;20040;-67
2022/07/26 02:05:58;;;;;;;4.13;1.10;;;23.90;55.40;;;;;;5026154;28;20025;-68
2022/07/26 02:08:23;;;;;;;3.65;1.30;;;24.00;55.50;;;;;;5026214;28;20065;-68
2022/07/26 02:10:59;;;;;;;2.67;1.10;;;23.90;55.40;;;;;;5024822;28;20529;-67
2022/07/26 02:13:39;;;;;;;3.03;0.95;;;23.90;55.40;;;;;;5024702;28;20569;-68
2022/07/26 02:16:06;;;;;;;3.63;0.98;;;24.00;55.50;;;;;;5023478;28;20021;-68
2022/07/26 02:18:32;;;;;;;1.65;0.80;;;23.90;55.40;;;;;;5026957;28;20025;-68
2022/07/26 02:20:58;;;;;;;2.85;1.10;;;23.90;55.40;;;;;;5022728;28;20494;-68
2022/07/26 02:23:24;;;;;;;2.03;1.00;;;23.90;55.40;;;;;;5025492;28;20029;-68
2022/07/26 02:25:50;;;;;;;3.05;1.00;;;23.90;55.40;;;;;;5030692;28;20071;-68
2022/07/26 02:28:15;;;;;;;1.95;0.85;;;23.90;55.50;;;;;;5030197;28;20403;-68
2022/07/26 02:30:42;;;;;;;4.22;1.08;;;23.90;55.50;;;;;;5028868;28;20026;-68
2022/07/26 02:33:07;;;;;;;2.05;0.80;;;23.90;55.50;;;;;;5031058;28;20108;-68
2022/07/26 02:35:33;;;;;;;3.75;0.93;;;23.90;55.50;;;;;;5029990;28;20033;-68
2022/07/26 02:38:04;;;;;;;2.22;0.95;;;23.90;55.50;;;;;;5028108;28;20079;-68
2022/07/26 02:40:30;;;;;;;4.78;1.10;;;23.90;55.50;;;;;;5029024;28;20638;-68
2022/07/26 02:42:55;;;;;;;3.78;1.05;;;23.90;55.50;;;;;;5029494;28;20036;-67
2022/07/26 02:45:21;;;;;;;4.40;1.20;;;23.90;55.50;;;;;;5028729;28;20506;-68
2022/07/26 02:47:51;;;;;;;2.42;0.90;;;23.80;55.40;;;;;;5030530;28;20034;-68
2022/07/26 02:50:18;;;;;;;2.47;0.88;;;23.90;55.50;;;;;;5028587;28;20061;-68
2022/07/26 02:52:46;;;;;;;2.67;0.95;;;23.80;55.50;;;;;;5028011;28;20048;-68
2022/07/26 02:55:13;;;;;;;2.08;0.90;;;23.80;55.50;;;;;;5028967;28;20071;-68
2022/07/26 02:57:39;;;;;;;2.55;1.00;;;23.90;55.50;;;;;;5025786;28;20025;-68
2022/07/26 03:00:05;;;;;;;2.33;0.90;;;23.90;55.50;;;;;;5026792;28;20033;-68
2022/07/26 03:02:31;;;;;;;2.22;1.00;;;23.80;55.50;;;;;;5027634;28;20036;-68
2022/07/26 03:04:57;;;;;;;3.15;1.00;;;23.80;55.50;;;;;;5029220;28;20029;-67
2022/07/26 03:07:22;;;;;;;2.70;1.00;;;23.80;55.50;;;;;;5028016;28;20032;-68
2022/07/26 03:09:48;;;;;;;2.85;0.90;;;23.80;55.50;;;;;;5029050;28;20029;-68
2022/07/26 03:12:13;;;;;;;3.20;1.00;;;23.80;55.50;;;;;;5025994;28;20030;-68
2022/07/26 03:14:39;;;;;;;2.58;0.82;;;23.80;55.50;;;;;;5028491;28;20123;-68
2022/07/26 03:17:05;;;;;;;2.35;0.90;;;23.80;55.60;;;;;;5029010;28;20409;-67
2022/07/26 03:19:30;;;;;;;2.92;0.80;;;23.80;55.50;;;;;;5027755;28;20593;-68
2022/07/26 03:21:56;;;;;;;1.55;0.80;;;23.80;55.50;;;;;;5027182;28;20401;-68
2022/07/26 03:24:22;;;;;;;3.42;1.02;;;23.80;55.60;;;;;;5029287;28;20372;-68
2022/07/26 03:26:47;;;;;;;2.40;0.95;;;23.80;55.50;;;;;;5029067;28;20572;-67
2022/07/26 03:29:13;;;;;;;2.40;0.90;;;23.80;55.50;;;;;;5026293;28;20052;-68
2022/07/26 03:31:38;;;;;;;2.20;0.90;;;23.80;55.60;;;;;;5027856;28;20673;-68
2022/07/26 03:34:04;;;;;;;3.65;0.90;;;23.80;55.60;;;;;;5029238;28;20520;-68
2022/07/26 03:36:30;;;;;;;1.73;0.70;;;23.70;55.60;;;;;;5028079;28;20191;-68
2022/07/26 03:38:55;;;;;;;3.25;1.10;;;23.80;55.60;;;;;;5027967;28;20057;-67
2022/07/26 03:41:21;;;;;;;1.73;0.70;;;23.70;55.50;;;;;;5027027;28;20041;-68
2022/07/26 03:43:47;;;;;;;2.58;0.95;;;23.70;55.50;;;;;;5027665;28;20025;-67
2022/07/26 03:46:12;;;;;;;1.55;0.70;;;23.70;55.60;;;;;;5024638;28;20025;-68
2022/07/26 03:48:38;;;;;;;2.38;0.95;;;23.70;55.60;;;;;;5027258;28;20025;-68
2022/07/26 03:51:04;;;;;;;2.80;0.88;;;23.70;55.60;;;;;;5027355;28;20049;-68
2022/07/26 03:53:29;;;;;;;3.95;1.08;;;23.70;55.60;;;;;;5027137;28;20107;-67
2022/07/26 03:58:39;;;;;;;1.30;0.70;;;23.70;55.60;;;;;;5027103;28;20036;-68
2022/07/26 04:01:05;;;;;;;1.98;0.80;;;23.70;55.60;;;;;;5025981;28;20034;-68
2022/07/26 04:03:30;;;;;;;2.28;0.80;;;23.70;55.60;;;;;;5029073;28;20057;-68
2022/07/26 04:05:56;;;;;;;3.28;0.95;;;23.70;55.60;;;;;;5027664;28;20033;-68
2022/07/26 04:08:22;;;;;;;1.63;0.90;;;23.70;55.60;;;;;;5027953;28;20025;-67
2022/07/26 04:10:49;;;;;;;3.03;0.90;;;23.70;55.60;;;;;;5023793;28;20036;-67
2022/07/26 04:13:16;;;;;;;1.08;0.70;;;23.70;55.70;;;;;;5028956;28;21363;-68
2022/07/26 04:15:41;;;;;;;1.75;0.80;;;23.60;55.50;;;;;;5028638;28;20026;-68
2022/07/26 04:18:07;;;;;;;0.80;0.60;;;23.70;55.60;;;;;;5026477;28;20028;-67
2022/07/26 04:20:33;;;;;;;2.03;0.77;;;23.70;55.60;;;;;;5026764;28;20013;-67
2022/07/26 04:22:58;;;;;;;1.80;0.80;;;23.60;55.60;;;;;;5025240;28;20034;-68
2022/07/26 04:25:24;;;;;;;2.97;0.75;;;23.60;55.60;;;;;;5025935;28;20022;-68
2022/07/26 04:27:50;;;;;;;2.15;0.70;;;23.60;55.60;;;;;;5020473;28;20353;-68
2022/07/26 04:30:15;;;;;;;1.77;0.70;;;23.60;55.60;;;;;;5023224;28;20030;-68
2022/07/26 04:32:42;;;;;;;2.78;0.82;;;23.60;55.60;;;;;;5025992;28;20048;-67
2022/07/26 04:35:08;;;;;;;1.55;0.75;;;23.60;55.60;;;;;;5024389;28;20049;-68
2022/07/26 04:37:38;;;;;;;2.53;0.82;;;23.60;55.70;;;;;;5027702;28;20072;-68
2022/07/26 04:40:05;;;;;;;3.00;0.85;;;23.60;55.70;;;;;;5026061;28;20030;-67
2022/07/26 04:42:31;;;;;;;1.95;0.60;;;23.60;55.70;;;;;;5024740;28;20029;-68
2022/07/26 04:44:57;;;;;;;2.83;0.80;;;23.60;55.70;;;;;;5025952;28;20017;-69
2022/07/26 04:47:23;;;;;;;2.30;0.80;;;23.60;55.60;;;;;;5009616;28;20038;-67
2022/07/26 04:49:49;;;;;;;1.52;0.80;;;23.60;55.70;;;;;;5026756;28;20025;-68
2022/07/26 04:52:14;;;;;;;2.58;0.90;;;23.60;55.70;;;;;;5027733;28;20041;-67
2022/07/26 04:54:40;;;;;;;2.35;0.93;;;23.60;55.70;;;;;;5027557;28;20040;-67
2022/07/26 04:57:06;;;;;;;2.70;0.95;;;23.60;55.70;;;;;;5025781;28;20065;-68
2022/07/26 04:59:31;;;;;;;2.03;0.95;;;23.60;55.70;;;;;;5026366;28;20405;-68
2022/07/26 05:01:57;;;;;;;2.08;0.90;;;23.50;55.60;;;;;;5027045;28;20092;-68
2022/07/26 05:04:23;;;;;;;2.30;0.80;;;23.50;55.70;;;;;;5023491;28;20124;-68
2022/07/26 05:06:48;;;;;;;1.65;0.80;;;23.60;55.70;;;;;;5027318;28;20025;-67
2022/07/26 05:09:14;;;;;;;3.13;1.17;;;23.60;55.70;;;;;;5024565;28;20048;-68
2022/07/26 05:11:40;;;;;;;1.88;0.65;;;23.50;55.70;;;;;;5013848;28;20040;-67
2022/07/26 05:14:05;;;;;;;1.10;0.80;;;23.50;55.70;;;;;;5019063;28;20029;-67
2022/07/26 05:16:31;;;;;;;2.50;0.90;;;23.50;55.70;;;;;;5022081;28;20048;-67
2022/07/26 05:18:56;;;;;;;2.72;0.90;;;23.50;55.70;;;;;;5023103;28;20075;-67
2022/07/26 05:21:22;;;;;;;2.53;0.90;;;23.50;55.70;;;;;;5025409;28;20076;-68
2022/07/26 05:23:48;;;;;;;6.03;0.90;;;23.50;55.80;;;;;;5026079;28;20964;-68
2022/07/26 05:26:13;;;;;;;5.30;1.33;;;23.50;55.80;;;;;;5026419;28;20026;-68
2022/07/26 05:28:39;;;;;;;7.00;1.10;;;23.50;56.00;;;;;;5025846;28;20033;-68
2022/07/26 05:31:05;;;;;;;6.82;1.35;;;23.50;56.30;;;;;;5025784;28;20441;-67
2022/07/26 05:33:30;;;;;;;5.75;1.23;;;23.50;56.10;;;;;;5026724;28;20038;-67
2022/07/26 05:35:56;;;;;;;3.42;1.10;;;23.50;56.20;;;;;;5026794;28;20021;-67
2022/07/26 05:38:24;;;;;;;5.78;1.17;;;23.50;56.10;;;;;;5022322;28;20087;-67
2022/07/26 05:40:50;;;;;;;5.63;1.08;;;23.50;56.30;;;;;;5024019;28;20033;-67
2022/07/26 05:43:15;;;;;;;4.32;1.15;;;23.50;56.20;;;;;;5025585;28;20410;-67
2022/07/26 05:45:41;;;;;;;5.00;0.98;;;23.50;56.30;;;;;;5024369;28;20087;-68
2022/07/26 05:48:06;;;;;;;4.20;1.10;;;23.50;56.20;;;;;;5025637;28;20029;-66
2022/07/26 05:50:32;;;;;;;5.72;1.05;;;23.50;56.30;;;;;;5025262;28;20067;-67
2022/07/26 05:52:58;;;;;;;4.88;1.10;;;23.50;56.30;;;;;;5026291;28;20044;-67
2022/07/26 05:55:23;;;;;;;6.45;1.08;;;23.50;56.20;;;;;;5023382;28;20017;-67
2022/07/26 05:57:49;;;;;;;4.38;1.00;;;23.50;56.30;;;;;;5026624;28;20029;-67
2022/07/26 06:00:15;;;;;;;5.57;0.85;;;23.40;56.20;;;;;;5024909;28;20107;-67
2022/07/26 06:02:40;;;;;;;3.95;0.90;;;23.50;56.20;;;;;;5024919;28;20030;-67
2022/07/26 06:05:06;;;;;;;5.28;1.40;;;23.40;56.20;;;;;;5024861;28;20029;-67
2022/07/26 06:07:32;;;;;;;3.13;1.05;;;23.40;56.30;;;;;;5024443;28;20033;-68
2022/07/26 06:09:58;;;;;;;3.72;1.08;;;23.40;56.20;;;;;;5026523;28;20513;-67
2022/07/26 06:12:23;;;;;;;5.22;1.23;;;23.50;56.20;;;;;;5023701;28;20057;-67
2022/07/26 06:14:49;;;;;;;4.97;1.13;;;23.40;56.20;;;;;;5025378;28;20029;-67
2022/07/26 06:17:15;;;;;;;4.22;1.13;;;23.40;56.20;;;;;;5026039;28;20091;-67
2022/07/26 06:19:40;;;;;;;6.15;1.23;;;23.40;56.20;;;;;;5026527;28;20512;-67
2022/07/26 06:22:06;;;;;;;4.45;1.00;;;23.40;56.20;;;;;;5025596;28;20533;-67
2022/07/26 06:24:32;;;;;;;3.42;1.00;;;23.40;56.20;;;;;;5024701;28;20094;-67
2022/07/26 06:26:57;;;;;;;4.28;1.10;;;23.40;56.20;;;;;;5025172;28;20044;-67
2022/07/26 06:29:23;;;;;;;6.63;1.15;;;23.40;56.20;;;;;;5025288;28;20029;-67
2022/07/26 06:31:49;;;;;;;4.30;1.00;;;23.40;56.10;;;;;;5027812;28;20057;-67
2022/07/26 06:34:15;;;;;;;4.03;1.00;;;23.40;56.30;;;;;;5024846;28;20394;-67
2022/07/26 06:36:41;;;;;;;3.25;1.00;;;23.40;56.20;;;;;;5024091;28;20402;-67
2022/07/26 06:39:06;;;;;;;4.65;1.25;;;23.40;56.20;;;;;;5023808;28;20053;-67
2022/07/26 06:41:32;;;;;;;4.00;1.08;;;23.40;56.20;;;;;;5024783;28;20068;-67
2022/07/26 06:43:57;;;;;;;3.83;1.13;;;23.40;56.10;;;;;;5024049;28;20026;-67
2022/07/26 06:46:23;;;;;;;2.53;0.90;;;23.40;56.10;;;;;;5024798;28;20025;-67
2022/07/26 06:48:49;;;;;;;4.93;1.10;;;23.40;56.10;;;;;;5026135;28;20021;-67
2022/07/26 06:51:14;;;;;;;3.97;1.10;;;23.40;56.20;;;;;;5022453;28;20049;-67
2022/07/26 06:53:40;;;;;;;4.28;0.88;;;23.40;56.20;;;;;;5024780;28;20121;-67
2022/07/26 06:56:06;;;;;;;4.60;1.02;;;23.40;56.20;;;;;;5026429;28;20478;-66
2022/07/26 06:58:32;;;;;;;3.53;0.90;;;23.40;56.10;;;;;;5025112;28;20040;-68
2022/07/26 07:00:57;;;;;;;3.22;1.10;;;23.40;56.20;;;;;;5025063;28;20033;-67
2022/07/26 07:03:23;;;;;;;3.22;1.02;;;23.40;56.10;;;;;;5025896;28;20032;-68
2022/07/26 07:05:49;;;;;;;3.70;1.10;;;23.40;56.10;;;;;;5024900;28;20028;-67
2022/07/26 07:08:14;;;;;;;3.50;1.02;;;23.40;56.10;;;;;;5023059;28;20021;-67
2022/07/26 07:10:40;;;;;;;4.07;1.10;;;23.40;56.10;;;;;;5026714;28;20124;-67
2022/07/26 07:13:06;;;;;;;3.90;1.00;;;23.40;56.10;;;;;;5028868;28;20048;-67
2022/07/26 07:15:31;;;;;;;2.03;0.82;;;23.40;56.10;;;;;;5029705;28;20025;-67
2022/07/26 07:17:57;;;;;;;3.97;1.00;;;23.40;56.10;;;;;;5027887;28;20018;-67
2022/07/26 07:20:23;;;;;;;3.40;1.10;;;23.40;56.10;;;;;;5028196;28;20037;-68
2022/07/26 07:22:48;;;;;;;3.97;1.10;;;23.40;56.10;;;;;;5029205;28;20064;-67
2022/07/26 07:25:14;;;;;;;4.28;1.00;;;23.40;56.00;;;;;;5030134;28;20037;-67
2022/07/26 07:27:40;;;;;;;2.67;1.00;;;23.40;56.00;;;;;;5026000;28;20019;-67
2022/07/26 07:30:07;;;;;;;2.60;0.85;;;23.40;56.00;;;;;;5026762;28;20018;-68
2022/07/26 07:32:32;;;;;;;2.35;0.82;;;23.40;56.00;;;;;;5029367;28;20060;-67
2022/07/26 07:34:58;;;;;;;3.35;1.08;;;23.40;56.00;;;;;;5028850;28;20478;-68
2022/07/26 07:37:24;;;;;;;4.07;1.10;;;23.40;55.90;;;;;;5029018;28;20033;-67
2022/07/26 07:39:49;;;;;;;3.13;0.90;;;23.30;55.80;;;;;;5026884;28;20022;-67
2022/07/26 07:42:15;;;;;;;3.25;1.10;;;23.40;56.10;;;;;;5028231;28;20107;-67
2022/07/26 07:44:40;;;;;;;3.55;1.00;;;23.40;55.90;;;;;;5027275;28;20022;-67
2022/07/26 07:47:07;;;;;;;2.60;0.90;;;23.40;55.80;;;;;;5027810;28;20034;-67
2022/07/26 07:49:33;;;;;;;3.88;0.95;;;23.40;56.10;;;;;;5025670;28;20045;-67
2022/07/26 07:51:59;;;;;;;4.05;1.00;;;23.40;55.90;;;;;;5028798;28;20525;-68
2022/07/26 07:54:25;;;;;;;3.03;1.00;;;23.40;55.80;;;;;;5027272;28;20021;-68
2022/07/26 07:56:51;;;;;;;3.60;0.93;;;23.40;55.80;;;;;;5027910;28;20033;-67
2022/07/26 07:59:17;;;;;;;2.75;0.90;;;23.40;55.80;;;;;;5023637;28;20399;-68
2022/07/26 08:01:43;;;;;;;4.03;1.08;;;23.40;55.80;;;;;;5027591;28;20037;-67
2022/07/26 08:04:08;;;;;;;3.20;1.08;;;23.40;55.80;;;;;;5028341;28;20394;-67
2022/07/26 08:06:34;;;;;;;3.80;0.95;;;23.40;55.80;;;;;;5028878;28;20410;-68
2022/07/26 08:09:00;;;;;;;3.30;0.80;;;23.40;55.80;;;;;;5027887;28;20029;-67
2022/07/26 08:11:26;;;;;;;3.15;1.10;;;23.50;55.80;;;;;;5026706;28;20038;-67
2022/07/26 08:13:51;;;;;;;2.53;0.98;;;23.40;55.70;;;;;;5026457;28;20029;-67
2022/07/26 08:16:17;;;;;;;3.35;1.10;;;23.50;55.80;;;;;;5027545;28;20060;-67
2022/07/26 08:18:43;;;;;;;4.72;1.20;;;23.50;55.80;;;;;;5027663;28;20021;-67
2022/07/26 08:21:08;;;;;;;3.45;1.00;;;23.40;55.70;;;;;;5026004;28;20029;-68
2022/07/26 08:23:34;;;;;;;2.90;0.88;;;23.50;55.80;;;;;;5027991;28;20026;-67
2022/07/26 08:26:00;;;;;;;2.72;0.90;;;23.40;55.70;;;;;;5027279;28;20033;-67
2022/07/26 08:28:28;;;;;;;3.35;1.00;;;23.40;55.80;;;;;;5026011;28;20064;-67
2022/07/26 08:30:54;;;;;;;4.00;0.95;;;23.50;55.70;;;;;;5023897;28;20032;-67
2022/07/26 08:33:20;;;;;;;4.47;1.02;;;23.50;55.70;;;;;;5026136;28;20045;-68
2022/07/26 08:35:46;;;;;;;6.07;1.15;;;23.50;55.70;;;;;;5025325;28;20073;-67
2022/07/26 08:38:12;;;;;;;4.47;1.10;;;23.50;55.70;;;;;;5025040;28;20164;-67
2022/07/26 08:40:37;;;;;;;2.55;0.73;;;23.50;55.70;;;;;;5028066;28;20104;-67
2022/07/26 08:43:03;;;;;;;5.10;1.25;;;23.50;55.60;;;;;;5024753;28;20116;-67
2022/07/26 08:45:29;;;;;;;2.05;1.00;;;23.50;55.60;;;;;;5027054;28;20022;-67
2022/07/26 08:47:56;;;;;;;2.90;1.00;;;23.50;55.70;;;;;;5025169;28;20563;-68
2022/07/26 08:50:21;;;;;;;3.30;0.77;;;23.50;55.60;;;;;;5028324;28;20159;-67
2022/07/26 08:52:47;;;;;;;2.70;0.75;;;23.50;55.60;;;;;;5026968;28;20128;-67
2022/07/26 08:55:17;;;;;;;2.17;0.93;;;23.50;55.60;;;;;;5035538;28;20018;-68
2022/07/26 08:57:43;;;;;;;2.33;0.80;;;23.50;55.60;;;;;;5027446;28;20517;-67
2022/07/26 09:00:24;;;;;;;3.95;0.80;;;23.50;55.50;;;;;;5026668;28;20067;-67
2022/07/26 09:02:50;;;;;;;4.28;1.10;;;23.50;55.50;;;;;;5025189;28;20044;-67
2022/07/26 09:05:18;;;;;;;4.40;1.13;;;23.50;55.40;;;;;;5025325;28;20041;-67
2022/07/26 09:07:44;;;;;;;2.50;0.82;;;23.60;55.50;;;;;;5026556;28;20025;-67
2022/07/26 09:10:13;;;;;;;3.10;0.90;;;23.60;55.40;;;;;;5026954;28;20040;-67
2022/07/26 09:12:39;;;;;;;3.03;1.05;;;23.60;55.40;;;;;;5026495;28;20072;-67
2022/07/26 09:15:06;;;;;;;5.22;1.15;;;23.60;55.30;;;;;;5025574;28;20057;-67
2022/07/26 09:17:40;;;;;;;3.15;0.73;;;23.60;55.30;;;;;;5024009;28;20112;-67
2022/07/26 09:20:16;;;;;;;3.25;0.88;;;23.60;55.20;;;;;;5023387;28;20021;-68
2022/07/26 09:23:03;;;;;;;2.45;0.88;;;23.60;55.30;;;;;;5023334;28;20102;-67
2022/07/26 09:25:31;;;;;;;3.10;1.00;;;23.60;55.20;;;;;;5025568;28;20029;-67
2022/07/26 09:27:58;;;;;;;3.85;1.10;;;23.60;55.20;;;;;;5023084;28;20087;-68
2022/07/26 09:30:24;;;;;;;4.03;0.90;;;23.60;55.20;;;;;;5025536;28;20032;-67
2022/07/26 09:33:15;;;;;;;2.90;1.00;;;23.70;55.20;;;;;;5025333;28;20037;-67
2022/07/26 09:35:41;;;;;;;3.45;1.00;;;23.70;55.20;;;;;;5024481;28;20038;-67
2022/07/26 09:38:13;;;;;;;4.78;1.23;;;23.70;55.20;;;;;;5027002;28;20109;-66
2022/07/26 09:40:39;;;;;;;2.65;0.68;;;23.70;55.10;;;;;;5027790;28;20068;-67
2022/07/26 09:43:05;;;;;;;4.78;1.20;;;23.70;55.20;;;;;;5025674;28;20057;-67
2022/07/26 09:45:32;;;;;;;2.97;1.08;;;23.70;55.10;;;;;;5026026;28;20076;-67
2022/07/26 09:47:58;;;;;;;3.70;0.90;;;23.70;55.10;;;;;;5025461;28;20397;-68
2022/07/26 09:50:26;;;;;;;3.60;1.10;;;23.70;55.00;;;;;;5025440;28;20509;-67
2022/07/26 09:52:56;;;;;;;3.65;0.82;;;23.70;55.00;;;;;;5023209;28;20053;-67
2022/07/26 09:55:22;;;;;;;2.55;1.00;;;23.70;55.00;;;;;;5026351;28;20029;-68
2022/07/26 09:57:49;;;;;;;2.45;0.90;;;23.70;54.90;;;;;;5026269;28;20059;-67
2022/07/26 10:00:15;;;;;;;2.40;0.95;;;23.80;55.00;;;;;;5025375;28;20152;-67
2022/07/26 10:02:41;;;;;;;2.78;0.90;;;23.70;54.90;;;;;;5024980;28;20017;-67
2022/07/26 10:05:07;;;;;;;5.50;1.10;;;23.80;54.90;;;;;;5025824;28;20060;-67
2022/07/26 10:07:32;;;;;;;3.42;0.90;;;23.80;54.90;;;;;;5025183;28;20029;-67
2022/07/26 10:10:05;;;;;;;3.33;0.90;;;23.80;54.90;;;;;;5025094;28;20386;-67
2022/07/26 10:12:31;;;;;;;3.80;0.98;;;23.80;54.80;;;;;;5026035;28;20132;-68
2022/07/26 10:14:57;;;;;;;4.00;1.00;;;23.80;54.80;;;;;;5022156;28;20021;-67
2022/07/26 10:17:28;;;;;;;4.00;1.15;;;23.80;54.80;;;;;;5025628;28;20413;-68
2022/07/26 10:20:04;;;;;;;3.78;1.00;;;23.80;54.70;;;;;;5027058;28;20029;-67
2022/07/26 10:22:30;;;;;;;2.33;0.90;;;23.80;54.60;;;;;;5024653;28;20045;-67
2022/07/26 10:24:57;;;;;;;3.78;0.80;;;23.80;54.60;;;;;;5024315;28;20018;-67
2022/07/26 10:27:39;;;;;;;5.35;1.23;;;23.80;54.60;;;;;;5026110;28;20029;-68
2022/07/26 10:30:17;;;;;;;2.75;0.88;;;23.80;54.60;;;;;;5023309;28;20022;-68
2022/07/26 10:33:08;;;;;;;3.28;0.90;;;23.90;54.50;;;;;;5024422;28;20041;-67
2022/07/26 10:35:40;;;;;;;3.17;0.93;;;23.90;54.50;;;;;;5025047;28;20057;-67
2022/07/26 10:38:08;;;;;;;5.05;1.20;;;23.90;54.50;;;;;;5025201;28;20498;-66
2022/07/26 10:40:34;;;;;;;4.38;0.88;;;23.90;54.40;;;;;;5025592;28;20071;-67
2022/07/26 10:43:10;;;;;;;2.47;0.85;;;23.90;54.30;;;;;;5025048;28;20104;-67
2022/07/26 10:45:36;;;;;;;3.15;0.85;;;24.00;54.20;;;;;;5025441;28;20032;-67
2022/07/26 10:48:11;;;;;;;2.40;0.88;;;24.00;54.20;;;;;;5028001;28;20029;-67
2022/07/26 10:50:37;;;;;;;4.35;1.05;;;24.00;54.20;;;;;;5025939;28;20514;-67
2022/07/26 10:53:03;;;;;;;2.15;0.90;;;24.00;54.10;;;;;;5028055;28;20039;-67
2022/07/26 10:55:29;;;;;;;1.58;0.82;;;24.00;54.00;;;;;;5029091;28;20022;-67
2022/07/26 10:57:54;;;;;;;3.92;1.00;;;24.00;54.00;;;;;;5027309;28;20057;-67
2022/07/26 11:00:24;;;;;;;4.70;1.02;;;24.10;54.00;;;;;;5030458;28;20037;-67
2022/07/26 11:02:53;;;;;;;2.83;0.95;;;24.10;54.00;;;;;;5027109;28;20029;-67
2022/07/26 11:05:20;;;;;;;3.45;0.90;;;24.10;53.90;;;;;;5029323;28;20030;-67
2022/07/26 11:07:58;;;;;;;2.53;0.80;;;24.10;53.90;;;;;;5028726;28;20144;-68
2022/07/26 11:10:29;;;;;;;3.30;0.85;;;24.10;53.90;;;;;;5029396;28;20034;-68
2022/07/26 11:13:28;;;;;;;2.50;1.00;;;24.10;53.80;;;;;;5027868;28;20044;-67
2022/07/26 11:16:02;;;;;;;3.92;1.00;;;24.10;53.80;;;;;;5022458;28;20037;-67
2022/07/26 11:18:34;;;;;;;3.00;0.77;;;24.10;53.80;;;;;;5029439;28;20036;-68
2022/07/26 11:21:13;;;;;;;2.70;1.00;;;24.20;53.70;;;;;;5028167;28;20116;-67
2022/07/26 11:23:50;;;;;;;2.40;0.93;;;24.20;53.70;;;;;;5026712;28;20021;-67
2022/07/26 11:26:17;;;;;;;2.08;0.73;;;24.20;53.60;;;;;;5028691;28;20022;-67
2022/07/26 11:28:46;;;;;;;2.70;0.85;;;24.20;53.60;;;;;;5029228;28;20026;-68
2022/07/26 11:31:12;;;;;;;3.60;0.95;;;24.20;53.60;;;;;;5026991;28;20029;-67
2022/07/26 11:33:39;;;;;;;2.85;0.90;;;24.20;53.50;;;;;;5025454;28;20033;-67
2022/07/26 11:36:05;;;;;;;3.67;1.00;;;24.30;53.50;;;;;;5028023;28;20403;-68
2022/07/26 11:38:48;;;;;;;2.15;0.73;;;24.30;54.20;;;;;;5028186;28;20029;-67
2022/07/26 11:41:17;;;;;;;2.17;0.88;;;24.30;53.50;;;;;;5025472;28;20029;-67
2022/07/26 11:43:42;;;;;;;3.17;1.02;;;24.30;53.50;;;;;;5028428;28;20029;-67
2022/07/26 11:46:08;;;;;;;2.67;0.95;;;24.30;53.50;;;;;;5028150;28;20490;-67
2022/07/26 11:48:34;;;;;;;3.15;0.85;;;24.30;53.50;;;;;;5027960;28;20057;-68
2022/07/26 11:51:20;;;;;;;3.25;1.00;;;24.30;53.30;;;;;;5026256;28;20045;-67
2022/07/26 11:53:46;;;;;;;4.78;1.13;;;24.30;53.30;;;;;;5026231;28;20132;-67
2022/07/26 11:56:20;;;;;;;3.88;1.15;;;24.40;53.30;;;;;;5024095;28;20116;-66
2022/07/26 11:58:50;;;;;;;3.13;1.00;;;24.40;53.40;;;;;;5027204;28;20047;-67
2022/07/26 12:01:19;;;;;;;1.65;0.82;;;24.40;53.40;;;;;;5027450;28;20280;-67
2022/07/26 12:03:47;;;;;;;2.58;0.80;;;24.40;53.30;;;;;;5026766;28;20108;-67
2022/07/26 12:06:15;;;;;;;2.83;0.95;;;24.40;53.30;;;;;;5030725;28;20025;-67
2022/07/26 12:08:44;;;;;;;2.70;1.05;;;24.40;53.30;;;;;;5026207;28;20025;-67
2022/07/26 12:11:10;;;;;;;2.28;0.90;;;24.40;53.20;;;;;;5023034;28;20022;-67
2022/07/26 12:13:48;;;;;;;3.22;0.80;;;24.40;53.20;;;;;;5028041;28;20108;-67
2022/07/26 12:16:37;;;;;;;5.65;1.30;;;24.50;53.20;;;;;;5027899;28;20120;-67
2022/07/26 12:19:03;;;;;;;2.47;0.85;;;24.50;53.20;;;;;;5023480;28;20037;-68
2022/07/26 12:21:38;;;;;;;3.80;0.95;;;24.50;53.20;;;;;;5026645;28;20541;-68
2022/07/26 12:24:04;;;;;;;2.00;0.80;;;24.50;53.20;;;;;;5026399;28;20030;-67
2022/07/26 12:26:29;;;;;;;4.13;1.00;;;24.60;53.10;;;;;;5025953;28;20026;-68
2022/07/26 12:28:58;;;;;;;3.15;1.15;;;24.60;53.20;;;;;;5052838;28;20073;-69
2022/07/26 12:31:31;;;;;;;3.95;1.00;;;24.60;53.40;;;;;;5027939;28;20405;-69
2022/07/26 12:33:56;;;;;;;4.78;1.00;;;24.60;53.30;;;;;;5027004;28;20045;-68
2022/07/26 12:36:23;;;;;;;3.08;0.88;;;24.60;53.30;;;;;;5026792;28;20025;-68
2022/07/26 12:38:51;;;;;;;5.10;0.88;;;24.60;53.20;;;;;;5026567;28;20029;-68
2022/07/26 12:41:52;;;;;;;3.90;0.88;;;24.60;53.10;;;;;;5055151;28;20026;-68
2022/07/26 12:44:21;;;;;;;3.28;1.00;;;24.60;53.20;;;;;;5000392;28;20153;-68
2022/07/26 12:46:47;;;;;;;2.83;0.85;;;24.60;53.40;;;;;;4984800;28;20042;-68
2022/07/26 12:49:12;;;;;;;4.15;1.05;;;24.60;53.30;;;;;;4987110;28;20026;-68
2022/07/26 12:51:38;;;;;;;4.15;0.90;;;24.60;53.20;;;;;;4985769;28;20049;-68